Asherville, Missouri
Current Conditions -  °F | °C
As of 12:53 PM on Tuesday 21 Oct 2014 (Local Time) from KCGI Reporting Station
Clear Clear  
Wind Chill: 71°   Ceiling: Unl
Heat Index: 71°   Visibility: 10mi
Dew Point: 46°   Wind: 12mph
Humidity: 41%   Direction: 360°N
Pressure: 30.09"   Gusts: NA
Location:  36.9506°N, 90.1582°W
Report Text: KCGI 211753Z 36010KT 10SM CLR 22/08 A3009 RMK AO2 SLP188 T02170078 10217 20044 58005
Loading
Personal Weather Stations






























Interactive Weather Map
Tropical Storm Tracking
New forecast layout! Learn more

10-Day Weather Forecast

Advertisements
Track Severe Weather on mobile